createdAt,value
2017-10-17T00:00:33.487Z,79.70
2017-10-17T00:03:01.917Z,92.20
2017-10-17T00:05:30.527Z,80.80
2017-10-17T00:07:58.957Z,89.40
2017-10-17T00:10:27.414Z,65.10
2017-10-17T00:12:56.497Z,66.17
2017-10-17T00:15:24.931Z,58.83
2017-10-17T00:17:53.356Z,57.70
2017-10-17T00:20:21.983Z,55.77
2017-10-17T00:22:50.432Z,68.67
2017-10-17T00:25:18.918Z,70.17
2017-10-17T00:27:47.404Z,64.70
2017-10-17T00:30:31.461Z,77.90
2017-10-17T00:33:02.679Z,59.53
2017-10-17T00:35:48.962Z,61.73
2017-10-17T00:38:19.088Z,62.37
2017-10-17T00:40:47.616Z,94.10
2017-10-17T00:43:16.724Z,58.00
2017-10-17T00:45:45.293Z,57.20
2017-10-17T00:48:30.251Z,55.70
2017-10-17T00:50:59.494Z,51.57
2017-10-17T00:53:27.939Z,61.23
2017-10-17T00:55:56.438Z,50.90
2017-10-17T00:58:30.548Z,47.47
2017-10-17T01:00:59.013Z,47.93
2017-10-17T01:03:27.393Z,82.97
2017-10-17T01:05:56.783Z,52.40
2017-10-17T01:08:25.255Z,58.67
2017-10-17T01:10:54.432Z,57.67
2017-10-17T01:13:23.064Z,47.33
2017-10-17T01:15:51.483Z,85.87
2017-10-17T01:18:19.957Z,71.80
2017-10-17T01:20:49.407Z,55.67
2017-10-17T01:26:21.562Z,51.23
2017-10-17T01:29:03.941Z,95.43
2017-10-17T01:31:32.512Z,72.20
2017-10-17T01:34:00.915Z,86.80
2017-10-17T01:36:29.325Z,97.50
2017-10-17T01:39:01.003Z,63.90
2017-10-17T01:41:30.265Z,71.00
2017-10-17T01:47:08.857Z,77.10
2017-10-17T01:49:53.308Z,44.17
2017-10-17T01:52:24.676Z,53.07
2017-10-17T01:55:05.134Z,52.47
2017-10-17T01:57:39.112Z,56.87
2017-10-17T02:00:07.610Z,51.20
2017-10-17T02:02:39.849Z,45.30
2017-10-17T02:05:08.316Z,44.83
2017-10-17T02:07:36.765Z,66.13
2017-10-17T02:10:11.433Z,64.43
2017-10-17T02:12:39.928Z,49.13
2017-10-17T02:15:08.489Z,53.10
2017-10-17T02:17:37.092Z,64.93
2017-10-17T02:20:06.389Z,52.07
2017-10-17T02:22:37.463Z,56.13
2017-10-17T02:25:27.535Z,57.40
2017-10-17T02:28:08.229Z,51.80
2017-10-17T02:30:39.834Z,60.53
2017-10-17T02:33:08.599Z,55.73
2017-10-17T02:35:37.085Z,61.20
2017-10-17T02:38:07.836Z,60.77
2017-10-17T02:40:36.240Z,60.30
2017-10-17T02:43:07.512Z,67.50
2017-10-17T02:45:36.083Z,51.07
2017-10-17T02:48:07.327Z,61.43
2017-10-17T02:50:35.729Z,54.07
2017-10-17T02:53:04.539Z,62.23
2017-10-17T02:55:32.963Z,52.10
2017-10-17T02:58:01.729Z,59.33
2017-10-17T03:00:30.291Z,62.40
2017-10-17T03:02:58.754Z,74.23
2017-10-17T03:05:34.251Z,55.50
2017-10-17T03:08:07.386Z,68.93
2017-10-17T03:10:35.962Z,71.27
2017-10-17T03:13:05.136Z,59.63
2017-10-17T03:15:47.525Z,62.17
2017-10-17T03:18:15.986Z,75.27
2017-10-17T03:20:44.466Z,84.43
2017-10-17T03:23:22.821Z,80.60
2017-10-17T03:25:51.252Z,58.13
2017-10-17T03:28:19.671Z,75.93
2017-10-17T03:30:50.377Z,77.80
2017-10-17T03:33:22.350Z,60.37
2017-10-17T03:35:50.754Z,75.93
2017-10-17T03:38:45.019Z,68.00
2017-10-17T03:41:22.265Z,53.90
2017-10-17T03:43:53.476Z,77.67
2017-10-17T03:49:37.331Z,74.20
2017-10-17T03:52:07.424Z,52.50
2017-10-17T03:54:35.850Z,75.17
2017-10-17T03:57:07.072Z,47.30
2017-10-17T03:59:38.191Z,64.83
2017-10-17T04:02:06.594Z,90.30
2017-10-17T04:04:45.781Z,71.47
2017-10-17T04:07:14.958Z,50.10
2017-10-17T04:09:44.242Z,55.60
2017-10-17T04:12:12.812Z,85.80
2017-10-17T04:14:45.688Z,59.57
2017-10-17T04:17:43.099Z,56.37
2017-10-17T04:20:15.258Z,98.07
2017-10-17T04:22:45.453Z,66.43
2017-10-17T04:25:19.296Z,59.20
2017-10-17T04:27:56.437Z,51.70
2017-10-17T04:30:33.678Z,63.53
2017-10-17T04:33:09.582Z,74.53
2017-10-17T04:35:37.990Z,53.80
2017-10-17T04:38:06.442Z,48.13
2017-10-17T04:40:34.964Z,75.87
2017-10-17T04:46:11.721Z,55.83
2017-10-17T04:51:55.813Z,53.37
2017-10-17T04:54:27.124Z,46.27
2017-10-17T04:57:02.500Z,48.30
2017-10-17T04:59:48.566Z,50.87
2017-10-17T05:02:27.576Z,64.83
2017-10-17T05:05:02.571Z,74.70
2017-10-17T05:07:35.844Z,48.70
2017-10-17T05:10:09.969Z,51.80
2017-10-17T05:12:40.468Z,48.50
2017-10-17T05:15:09.778Z,43.87
2017-10-17T05:17:55.332Z,57.23
2017-10-17T05:20:26.445Z,51.50
2017-10-17T05:22:57.579Z,42.20
2017-10-17T05:25:31.565Z,48.60
2017-10-17T05:28:10.885Z,43.50
2017-10-17T05:33:58.303Z,49.43
2017-10-17T05:36:45.170Z,54.33
2017-10-17T05:39:13.636Z,69.73
2017-10-17T05:41:42.085Z,46.97
2017-10-17T05:44:12.013Z,58.47
2017-10-17T05:46:48.419Z,51.77
2017-10-17T05:49:19.592Z,49.97
2017-10-17T05:51:48.781Z,71.00
2017-10-17T05:54:17.261Z,39.97
2017-10-17T05:56:45.661Z,39.67
2017-10-17T05:59:14.840Z,43.83
2017-10-17T06:01:44.209Z,45.47
2017-10-17T06:04:12.622Z,56.87
2017-10-17T06:06:41.331Z,51.53
2017-10-17T06:09:10.488Z,44.67
2017-10-17T06:11:38.889Z,44.33
2017-10-17T06:14:07.296Z,47.23
2017-10-17T06:16:36.740Z,43.87
2017-10-17T06:19:05.521Z,45.43
2017-10-17T06:21:33.913Z,60.90
2017-10-17T06:24:02.340Z,52.33
2017-10-17T06:26:31.480Z,52.57
2017-10-17T06:28:59.870Z,39.10
2017-10-17T06:31:28.335Z,59.67
2017-10-17T06:33:56.708Z,53.43
2017-10-17T06:36:25.097Z,56.10
2017-10-17T06:38:53.587Z,50.93
2017-10-17T06:41:21.969Z,43.83
2017-10-17T06:43:50.428Z,55.30
2017-10-17T06:46:18.899Z,49.60
2017-10-17T06:48:47.285Z,81.83
2017-10-17T06:51:15.710Z,61.67
2017-10-17T06:53:45.065Z,46.77
2017-10-17T06:56:13.472Z,42.10
2017-10-17T06:58:41.884Z,45.17
2017-10-17T07:01:11.316Z,44.60
2017-10-17T07:03:39.724Z,42.97
2017-10-17T07:06:08.108Z,44.43
2017-10-17T07:08:36.906Z,42.77
2017-10-17T07:11:05.299Z,35.93
2017-10-17T07:13:33.732Z,56.37
2017-10-17T07:16:02.364Z,40.73
2017-10-17T07:18:31.499Z,41.50
2017-10-17T07:21:00.636Z,48.50
2017-10-17T07:23:29.443Z,38.70
2017-10-17T07:25:57.878Z,67.73
2017-10-17T07:28:26.423Z,46.23
2017-10-17T07:30:55.669Z,44.93
2017-10-17T07:33:24.131Z,38.70
2017-10-17T07:35:52.550Z,43.70
2017-10-17T07:38:21.076Z,55.50
2017-10-17T07:40:49.520Z,38.60
2017-10-17T07:43:18.016Z,34.47
2017-10-17T07:45:46.857Z,35.53
2017-10-17T07:48:15.292Z,33.57
2017-10-17T07:50:44.553Z,35.50
2017-10-17T07:53:13.060Z,39.50
2017-10-17T07:55:41.434Z,35.50
2017-10-17T07:58:10.023Z,34.10
2017-10-17T08:00:39.430Z,32.90
2017-10-17T08:03:07.814Z,37.20
2017-10-17T08:05:37.056Z,33.33
2017-10-17T08:08:05.642Z,40.80
2017-10-17T08:10:34.098Z,39.13
2017-10-17T08:13:03.673Z,34.20
2017-10-17T08:15:33.111Z,36.33
2017-10-17T08:18:01.532Z,41.33
2017-10-17T08:20:29.945Z,35.50
2017-10-17T08:23:01.261Z,30.50
2017-10-17T08:25:30.274Z,28.70
2017-10-17T08:27:59.428Z,28.87
2017-10-17T08:30:28.459Z,38.80
2017-10-17T08:32:56.850Z,30.83
2017-10-17T08:35:26.051Z,35.20
2017-10-17T08:37:54.708Z,35.77
2017-10-17T08:40:24.065Z,32.00
2017-10-17T08:42:52.461Z,31.50
2017-10-17T08:45:21.407Z,32.90
2017-10-17T08:47:50.917Z,26.00
2017-10-17T08:50:20.142Z,31.90
2017-10-17T08:52:48.573Z,29.97
2017-10-17T08:55:17.021Z,30.60
2017-10-17T08:57:45.464Z,25.43
2017-10-17T09:00:14.697Z,20.70
2017-10-17T09:02:43.126Z,17.70
2017-10-17T09:05:12.284Z,18.30
2017-10-17T09:07:41.192Z,14.90
2017-10-17T09:10:09.633Z,14.47
2017-10-17T09:12:39.384Z,14.13
2017-10-17T09:15:07.929Z,13.80
2017-10-17T09:17:36.307Z,14.53
2017-10-17T09:20:04.784Z,13.07
2017-10-17T09:22:33.212Z,13.73
2017-10-17T09:25:02.090Z,13.77
2017-10-17T09:27:30.570Z,13.67
2017-10-17T09:29:59.372Z,13.53
2017-10-17T09:32:27.793Z,13.33
2017-10-17T09:34:56.179Z,14.60
2017-10-17T09:37:27.855Z,12.17
2017-10-17T09:39:57.479Z,12.70
2017-10-17T09:42:25.879Z,13.80
2017-10-17T09:44:55.700Z,13.47
2017-10-17T09:47:25.835Z,13.90
2017-10-17T09:49:54.995Z,13.60
2017-10-17T09:52:23.893Z,16.20
2017-10-17T09:54:52.318Z,13.07
2017-10-17T09:57:20.785Z,13.90
2017-10-17T09:59:51.099Z,12.57
2017-10-17T10:02:20.248Z,13.00
2017-10-17T10:04:50.409Z,12.23
2017-10-17T10:07:19.884Z,12.00
2017-10-17T10:09:48.294Z,11.73
2017-10-17T10:12:19.193Z,13.10
2017-10-17T10:14:49.559Z,11.07
2017-10-17T10:17:19.682Z,12.27
2017-10-17T10:19:48.125Z,11.73
2017-10-17T10:22:17.562Z,11.97
2017-10-17T10:24:46.819Z,12.90
2017-10-17T10:27:15.493Z,11.77
2017-10-17T10:29:44.872Z,10.60
2017-10-17T10:32:13.283Z,12.87
2017-10-17T10:34:41.858Z,12.07
2017-10-17T10:37:11.524Z,13.90
2017-10-17T10:39:40.711Z,13.70
2017-10-17T10:42:11.952Z,12.20
2017-10-17T10:44:41.379Z,12.50
2017-10-17T10:47:09.819Z,12.30
2017-10-17T10:49:38.762Z,11.90
2017-10-17T10:52:09.125Z,13.33
2017-10-17T10:54:37.509Z,12.60
2017-10-17T10:57:05.936Z,12.63
2017-10-17T10:59:35.365Z,13.90
2017-10-17T11:02:04.613Z,13.37
2017-10-17T11:04:33.081Z,13.87
2017-10-17T11:07:01.635Z,11.03
2017-10-17T11:09:30.090Z,12.47
2017-10-17T11:11:58.497Z,11.80
2017-10-17T11:14:27.279Z,11.80
2017-10-17T11:16:55.667Z,13.00
2017-10-17T11:19:24.104Z,10.80
2017-10-17T11:21:53.382Z,12.73
2017-10-17T11:24:22.667Z,11.17
2017-10-17T11:26:51.193Z,11.40
2017-10-17T11:29:20.636Z,10.80
2017-10-17T11:31:49.042Z,11.53
2017-10-17T11:34:18.272Z,12.70
2017-10-17T11:36:47.567Z,11.90
2017-10-17T11:39:16.369Z,11.70
2017-10-17T11:44:48.528Z,12.70
2017-10-17T11:47:18.166Z,11.30
2017-10-17T11:49:47.893Z,12.03
2017-10-17T11:52:16.263Z,11.67
2017-10-17T11:54:45.018Z,14.50
2017-10-17T11:57:14.048Z,11.87
2017-10-17T11:59:42.443Z,12.03
2017-10-17T12:02:12.019Z,12.20
2017-10-17T12:04:40.459Z,12.03
2017-10-17T12:07:10.399Z,11.70
2017-10-17T12:09:38.916Z,11.00
2017-10-17T12:12:08.177Z,11.70
2017-10-17T12:14:39.421Z,10.67
2017-10-17T12:17:09.962Z,12.03
2017-10-17T12:19:38.381Z,12.00
2017-10-17T12:22:06.918Z,11.40
2017-10-17T12:24:36.718Z,10.70
2017-10-17T12:27:05.206Z,12.73
2017-10-17T12:29:34.779Z,11.20
2017-10-17T12:32:04.428Z,11.63
2017-10-17T12:34:33.726Z,12.30
2017-10-17T12:37:03.006Z,12.60
2017-10-17T12:39:34.014Z,15.00
2017-10-17T12:42:03.542Z,14.30
2017-10-17T12:44:33.179Z,13.13
2017-10-17T12:47:02.091Z,12.40
2017-10-17T12:49:31.328Z,14.60
2017-10-17T12:52:02.703Z,13.90
2017-10-17T12:54:32.075Z,13.20
2017-10-17T12:57:00.590Z,15.17
2017-10-17T12:59:29.785Z,14.47
2017-10-17T13:02:00.288Z,13.17
2017-10-17T13:04:28.910Z,13.13
2017-10-17T13:06:58.217Z,14.43
2017-10-17T13:09:26.675Z,14.47
2017-10-17T13:11:55.900Z,14.00
2017-10-17T13:14:24.848Z,15.07
2017-10-17T13:16:53.806Z,14.80
2017-10-17T13:19:22.326Z,14.77
2017-10-17T13:21:51.921Z,16.20
2017-10-17T13:24:21.842Z,16.00
2017-10-17T13:26:51.187Z,14.30
2017-10-17T13:29:19.631Z,14.07
2017-10-17T13:31:48.341Z,13.60
2017-10-17T13:34:18.485Z,14.47
2017-10-17T13:36:49.282Z,11.10
2017-10-17T13:39:17.740Z,12.07
2017-10-17T13:41:46.411Z,11.50
2017-10-17T13:44:17.149Z,13.63
2017-10-17T13:46:45.657Z,12.10
2017-10-17T13:49:14.853Z,12.33
2017-10-17T13:51:44.550Z,12.13
2017-10-17T13:54:14.241Z,12.77
2017-10-17T13:56:42.666Z,12.00
2017-10-17T13:59:12.422Z,13.20
2017-10-17T14:01:42.203Z,12.33
2017-10-17T14:04:10.628Z,12.37
2017-10-17T14:06:39.570Z,13.20
2017-10-17T14:09:08.052Z,12.10
2017-10-17T14:11:36.691Z,12.60
2017-10-17T14:14:06.628Z,12.37
2017-10-17T14:16:35.079Z,11.93
2017-10-17T14:19:04.584Z,12.10
2017-10-17T14:21:34.074Z,12.20
2017-10-17T14:24:03.083Z,14.27
2017-10-17T14:26:31.481Z,12.37
2017-10-17T14:29:00.267Z,11.20
2017-10-17T14:31:29.035Z,13.43
2017-10-17T14:34:00.573Z,11.70
2017-10-17T14:36:29.323Z,12.97
2017-10-17T14:38:57.777Z,12.60
2017-10-17T14:41:26.195Z,12.30
2017-10-17T14:43:57.275Z,12.33
2017-10-17T14:46:26.967Z,12.57
2017-10-17T14:48:56.137Z,12.23
2017-10-17T14:51:25.414Z,11.90
2017-10-17T14:53:53.813Z,12.30
2017-10-17T14:56:23.380Z,13.00
2017-10-17T14:58:51.866Z,11.27
2017-10-17T15:01:20.302Z,12.63
2017-10-17T15:03:48.748Z,11.90
2017-10-17T15:06:18.178Z,11.20
2017-10-17T15:08:47.642Z,11.50
2017-10-17T15:11:16.033Z,10.63
2017-10-17T15:13:45.603Z,11.70
2017-10-17T15:16:14.028Z,12.60
2017-10-17T15:18:43.210Z,11.63
2017-10-17T15:21:13.866Z,13.03
2017-10-17T15:23:43.528Z,12.13
2017-10-17T15:26:11.949Z,11.80
2017-10-17T15:28:41.150Z,13.33
2017-10-17T15:31:10.283Z,13.50
2017-10-17T15:33:39.104Z,11.50
2017-10-17T15:36:07.886Z,13.90
2017-10-17T15:38:36.347Z,13.90
2017-10-17T15:41:04.834Z,13.73
2017-10-17T15:43:34.506Z,14.90
2017-10-17T15:46:04.069Z,13.80
2017-10-17T15:48:32.455Z,14.33
2017-10-17T15:51:00.915Z,13.20
2017-10-17T15:53:29.312Z,12.07
2017-10-17T15:55:58.537Z,12.13
2017-10-17T15:58:27.750Z,13.20
2017-10-17T16:00:56.191Z,12.70
2017-10-17T16:03:25.473Z,12.70
2017-10-17T16:05:53.940Z,12.47
2017-10-17T16:08:22.350Z,13.57
2017-10-17T16:10:51.019Z,12.00
2017-10-17T16:13:19.494Z,18.37
2017-10-17T16:15:48.625Z,20.80
2017-10-17T16:18:17.869Z,19.23
2017-10-17T16:20:46.602Z,23.00
2017-10-17T16:23:15.103Z,19.33
2017-10-17T16:25:44.283Z,15.27
2017-10-17T16:28:13.587Z,15.43
2017-10-17T16:30:42.758Z,14.57
2017-10-17T16:33:11.950Z,18.07
2017-10-17T16:35:40.795Z,16.47
2017-10-17T16:38:09.426Z,19.07
2017-10-17T16:40:37.847Z,21.17
2017-10-17T16:43:06.336Z,16.80
2017-10-17T16:45:34.733Z,18.80
2017-10-17T16:48:03.273Z,16.80
2017-10-17T16:50:32.565Z,17.53
2017-10-17T16:53:00.938Z,17.60
2017-10-17T16:55:29.367Z,17.47
2017-10-17T16:57:57.831Z,16.70
2017-10-17T17:00:26.573Z,16.93
2017-10-17T17:02:54.990Z,17.30
2017-10-17T17:05:23.461Z,16.30
2017-10-17T17:07:52.623Z,14.73
2017-10-17T17:10:21.015Z,16.40
2017-10-17T17:12:49.783Z,16.03
2017-10-17T17:15:18.169Z,16.13
2017-10-17T17:17:46.582Z,15.33
2017-10-17T17:20:17.806Z,18.37
2017-10-17T17:22:46.213Z,16.67
2017-10-17T17:25:16.155Z,16.43
2017-10-17T17:27:45.403Z,18.33
2017-10-17T17:30:13.872Z,17.50
2017-10-17T17:32:42.279Z,17.90
2017-10-17T17:35:11.498Z,18.10
2017-10-17T17:37:39.947Z,17.03
2017-10-17T17:40:08.706Z,18.60
2017-10-17T17:42:37.786Z,19.50
2017-10-17T17:45:06.260Z,21.37
2017-10-17T17:47:34.645Z,18.87
2017-10-17T17:50:03.389Z,20.27
2017-10-17T17:52:31.788Z,19.80
2017-10-17T17:55:00.187Z,19.67
2017-10-17T17:57:28.937Z,21.80
2017-10-17T17:59:58.086Z,20.50
2017-10-17T18:02:26.530Z,21.57
2017-10-17T18:04:54.956Z,23.37
2017-10-17T18:07:23.371Z,21.93
2017-10-17T18:09:51.755Z,23.40
2017-10-17T18:12:21.090Z,20.67
2017-10-17T18:14:49.849Z,22.00
2017-10-17T18:17:19.239Z,23.53
2017-10-17T18:19:47.916Z,23.53
2017-10-17T18:22:16.301Z,25.70
2017-10-17T18:24:45.450Z,26.50
2017-10-17T18:27:13.911Z,26.03
2017-10-17T18:29:42.279Z,23.67
2017-10-17T18:32:10.648Z,24.73
2017-10-17T18:34:40.115Z,24.03
2017-10-17T18:37:08.501Z,24.30
2017-10-17T18:39:37.431Z,25.90
2017-10-17T18:42:06.134Z,26.30
2017-10-17T18:44:34.516Z,24.10
2017-10-17T18:47:02.942Z,25.50
2017-10-17T18:49:31.348Z,23.90
2017-10-17T18:52:01.420Z,25.10
2017-10-17T18:54:29.810Z,24.53
2017-10-17T18:56:58.319Z,26.07
2017-10-17T18:59:27.510Z,25.63
2017-10-17T19:01:56.695Z,23.27
2017-10-17T19:04:25.303Z,26.00
2017-10-17T19:06:54.449Z,25.23
2017-10-17T19:09:22.803Z,24.90
2017-10-17T19:11:51.501Z,28.07
2017-10-17T19:14:19.874Z,23.67
2017-10-17T19:16:48.263Z,23.83
2017-10-17T19:19:16.744Z,23.70
2017-10-17T19:21:45.101Z,26.87
2017-10-17T19:24:13.496Z,21.07
2017-10-17T19:26:41.964Z,23.50
2017-10-17T19:29:10.615Z,24.60
2017-10-17T19:31:39.023Z,24.77
2017-10-17T19:34:08.102Z,24.50
2017-10-17T19:36:36.513Z,23.83
2017-10-17T19:39:04.996Z,23.97
2017-10-17T19:41:34.366Z,23.83
2017-10-17T19:44:04.319Z,21.90
2017-10-17T19:46:32.726Z,24.57
2017-10-17T19:49:01.446Z,23.90
2017-10-17T19:51:30.595Z,23.37
2017-10-17T19:53:59.022Z,23.03
2017-10-17T19:56:28.208Z,24.83
2017-10-17T19:58:57.335Z,23.30
2017-10-17T20:01:25.731Z,26.33
2017-10-17T20:03:54.176Z,28.60
2017-10-17T20:06:23.374Z,26.83
2017-10-17T20:08:52.532Z,26.60
2017-10-17T20:11:21.232Z,26.87
2017-10-17T20:13:49.641Z,27.03
2017-10-17T20:16:18.013Z,25.20
2017-10-17T20:18:47.355Z,26.57
2017-10-17T20:21:15.768Z,27.80
2017-10-17T20:23:44.173Z,27.07
2017-10-17T20:26:13.363Z,24.17
2017-10-17T20:28:42.549Z,25.80
2017-10-17T20:31:11.826Z,26.10
2017-10-17T20:33:40.345Z,27.40
2017-10-17T20:36:08.762Z,27.27
2017-10-17T20:38:37.170Z,26.70
2017-10-17T20:41:05.672Z,26.40
2017-10-17T20:43:34.122Z,28.90
2017-10-17T20:46:02.778Z,25.50
2017-10-17T20:48:31.252Z,27.53
2017-10-17T20:50:59.618Z,29.37
2017-10-17T20:53:28.028Z,26.00
2017-10-17T20:55:56.803Z,26.50
2017-10-17T20:58:25.168Z,25.60
2017-10-17T21:00:53.531Z,28.03
2017-10-17T21:03:22.705Z,26.83
2017-10-17T21:05:51.128Z,26.87
2017-10-17T21:08:19.850Z,26.27
2017-10-17T21:10:48.277Z,26.20
2017-10-17T21:13:17.412Z,27.27
2017-10-17T21:15:45.816Z,24.77
2017-10-17T21:18:14.619Z,25.33
2017-10-17T21:20:43.019Z,24.30
2017-10-17T21:23:12.178Z,25.07
2017-10-17T21:25:40.700Z,27.07
2017-10-17T21:28:09.836Z,24.47
2017-10-17T21:30:38.244Z,26.13
2017-10-17T21:33:06.768Z,25.43
2017-10-17T21:35:35.154Z,25.43
2017-10-17T21:38:03.521Z,26.23
2017-10-17T21:40:31.965Z,24.83
2017-10-17T21:43:00.364Z,27.13
2017-10-17T21:45:29.656Z,26.37
2017-10-17T21:47:58.144Z,26.93
2017-10-17T21:50:27.350Z,26.07
2017-10-17T21:52:56.487Z,24.27
2017-10-17T21:55:25.092Z,25.97
2017-10-17T21:57:53.538Z,25.73
2017-10-17T22:00:33.901Z,24.80
2017-10-17T22:03:02.262Z,28.30
2017-10-17T22:05:30.731Z,24.60
2017-10-17T22:08:00.043Z,28.00
2017-10-17T22:10:28.423Z,28.20
2017-10-17T22:12:56.784Z,30.50
2017-10-17T22:15:26.183Z,29.53
2017-10-17T22:17:55.351Z,28.57
2017-10-17T22:20:24.838Z,28.87
2017-10-17T22:22:53.269Z,24.70
2017-10-17T22:25:21.639Z,28.20
2017-10-17T22:27:50.783Z,28.67
2017-10-17T22:30:19.258Z,30.77
2017-10-17T22:32:47.620Z,27.23
2017-10-17T22:35:16.035Z,30.17
2017-10-17T22:37:44.631Z,28.20
2017-10-17T22:40:13.015Z,28.17
2017-10-17T22:42:41.386Z,26.70
2017-10-17T22:45:09.896Z,28.40
2017-10-17T22:47:39.056Z,26.87
2017-10-17T22:50:07.534Z,27.17
2017-10-17T22:52:36.048Z,27.73
2017-10-17T22:55:04.429Z,27.47
2017-10-17T22:57:32.807Z,28.13
2017-10-17T23:00:01.304Z,28.23
2017-10-17T23:02:30.470Z,28.73
2017-10-17T23:04:58.850Z,32.07
2017-10-17T23:07:27.254Z,28.60
2017-10-17T23:09:56.625Z,33.90
2017-10-17T23:12:25.025Z,32.80
2017-10-17T23:14:53.494Z,34.13
2017-10-17T23:17:33.798Z,33.70
2017-10-17T23:20:14.962Z,35.37
2017-10-17T23:22:44.097Z,37.50
2017-10-17T23:25:12.471Z,38.70
2017-10-17T23:27:41.690Z,39.87
2017-10-17T23:30:10.381Z,42.83
2017-10-17T23:32:38.770Z,43.33
2017-10-17T23:35:07.369Z,69.67
2017-10-17T23:37:36.495Z,54.70
2017-10-17T23:40:04.889Z,45.00
2017-10-17T23:42:33.451Z,45.53
2017-10-17T23:45:01.814Z,68.47
2017-10-17T23:47:30.946Z,46.90
2017-10-17T23:49:59.662Z,49.70
2017-10-17T23:52:28.230Z,58.53
2017-10-17T23:54:56.590Z,46.50
2017-10-17T23:57:26.136Z,56.23
2017-10-17T23:59:54.510Z,50.93
